Time,TemperatureF,DewpointF,PressureIn,WindDirection,WindDirectionDegrees,WindSpeedMPH,WindSpeedGustMPH,Humidity,HourlyPrecipIn,Conditions,Clouds,dailyrainin,SoftwareType,DateUTC
2013-08-29 00:03:00,65.9,63.5,29.93,ENE,57,0.0,7.0,92,0.00,,,0.00,Wunderground v.1.15,2013-08-29 05:03:00,
2013-08-29 00:08:00,65.8,63.7,29.93,ENE,57,0.0,0.0,93,0.00,,,0.00,Wunderground v.1.15,2013-08-29 05:08:00,
2013-08-29 00:13:00,65.8,63.7,29.94,NE,56,0.0,0.0,93,0.00,,,0.00,Wunderground v.1.15,2013-08-29 05:13:00,
2013-08-29 00:18:00,65.7,63.3,29.94,ENE,57,0.0,0.0,92,0.00,,,0.00,Wunderground v.1.15,2013-08-29 05:18:00,
2013-08-29 00:23:00,65.6,63.5,29.94,ENE,57,0.0,0.0,93,0.00,,,0.00,Wunderground v.1.15,2013-08-29 05:23:00,
2013-08-29 00:28:00,65.6,63.5,29.94,NE,56,0.0,1.0,93,0.00,,,0.00,Wunderground v.1.15,2013-08-29 05:28:00,
2013-08-29 00:33:00,65.7,63.6,29.94,ENE,57,1.0,1.0,93,0.00,,,0.00,Wunderground v.1.15,2013-08-29 05:33:00,
2013-08-29 00:38:00,65.7,63.6,29.94,NE,56,1.0,1.0,93,0.00,,,0.00,Wunderground v.1.15,2013-08-29 05:38:00,
2013-08-29 00:43:00,65.7,63.6,29.94,ENE,57,1.0,1.0,93,0.00,,,0.00,Wunderground v.1.15,2013-08-29 05:43:00,
2013-08-29 00:48:00,65.7,63.6,29.94,ENE,57,0.0,0.0,93,0.00,,,0.00,Wunderground v.1.15,2013-08-29 05:48:00,
2013-08-29 00:53:00,65.6,63.5,29.94,ENE,57,0.0,0.0,93,0.00,,,0.00,Wunderground v.1.15,2013-08-29 05:53:00,
2013-08-29 00:58:00,65.5,63.4,29.94,ENE,57,0.0,0.0,93,0.00,,,0.00,Wunderground v.1.15,2013-08-29 05:58:00,
2013-08-29 01:03:00,65.5,63.4,29.94,ENE,57,0.0,0.0,93,0.00,,,0.00,Wunderground v.1.15,2013-08-29 06:03:00,
2013-08-29 01:08:00,65.5,63.7,29.94,ENE,57,0.0,0.0,94,0.00,,,0.00,Wunderground v.1.15,2013-08-29 06:08:00,
2013-08-29 01:13:00,65.5,63.7,29.94,ENE,57,0.0,0.0,94,0.00,,,0.00,Wunderground v.1.15,2013-08-29 06:13:00,
2013-08-29 01:18:00,65.5,63.7,29.94,ENE,57,0.0,0.0,94,0.00,,,0.00,Wunderground v.1.15,2013-08-29 06:18:00,
2013-08-29 01:23:00,65.4,63.6,29.94,ENE,57,0.0,0.0,94,0.00,,,0.00,Wunderground v.1.15,2013-08-29 06:23:00,
2013-08-29 01:28:00,65.4,63.6,29.93,NE,56,0.0,0.0,94,0.00,,,0.00,Wunderground v.1.15,2013-08-29 06:28:00,
2013-08-29 01:33:00,65.4,63.6,29.93,ENE,57,0.0,0.0,94,0.00,,,0.00,Wunderground v.1.15,2013-08-29 06:33:00,
2013-08-29 01:43:00,65.3,63.5,29.94,NE,56,0.0,0.0,94,0.00,,,0.00,Wunderground v.1.15,2013-08-29 06:43:00,
2013-08-29 01:48:00,65.1,63.3,29.94,ENE,57,0.0,0.0,94,0.00,,,0.00,Wunderground v.1.15,2013-08-29 06:48:00,
2013-08-29 01:53:00,65.0,63.2,29.94,NE,56,0.0,0.0,94,0.00,,,0.00,Wunderground v.1.15,2013-08-29 06:53:00,
2013-08-29 01:58:00,64.9,63.1,29.94,ENE,57,0.0,0.0,94,0.00,,,0.00,Wunderground v.1.15,2013-08-29 06:58:00,
2013-08-29 02:03:00,64.8,63.0,29.94,NE,56,0.0,0.0,94,0.00,,,0.00,Wunderground v.1.15,2013-08-29 07:03:00,
2013-08-29 02:08:00,64.7,62.9,29.94,NE,56,0.0,0.0,94,0.00,,,0.00,Wunderground v.1.15,2013-08-29 07:08:00,
2013-08-29 02:13:00,64.6,62.8,29.94,ENE,57,0.0,0.0,94,0.00,,,0.00,Wunderground v.1.15,2013-08-29 07:13:00,
2013-08-29 02:18:00,64.5,62.7,29.94,NE,56,0.0,0.0,94,0.00,,,0.00,Wunderground v.1.15,2013-08-29 07:18:00,
2013-08-29 02:23:00,64.4,62.6,29.94,ENE,57,0.0,0.0,94,0.00,,,0.00,Wunderground v.1.15,2013-08-29 07:23:00,
2013-08-29 02:28:00,64.4,62.6,29.94,NE,56,0.0,0.0,94,0.00,,,0.00,Wunderground v.1.15,2013-08-29 07:28:00,
2013-08-29 02:33:00,64.3,62.5,29.94,ENE,57,0.0,0.0,94,0.00,,,0.00,Wunderground v.1.15,2013-08-29 07:33:00,
2013-08-29 02:38:00,64.2,62.4,29.94,NE,56,0.0,0.0,94,0.00,,,0.00,Wunderground v.1.15,2013-08-29 07:38:00,
2013-08-29 02:43:00,64.2,62.4,29.94,NE,56,0.0,0.0,94,0.00,,,0.00,Wunderground v.1.15,2013-08-29 07:43:00,
2013-08-29 02:48:00,64.3,62.5,29.94,ENE,57,0.0,0.0,94,0.00,,,0.00,Wunderground v.1.15,2013-08-29 07:48:00,
2013-08-29 02:53:00,64.4,62.6,29.94,NE,56,0.0,0.0,94,0.00,,,0.00,Wunderground v.1.15,2013-08-29 07:53:00,
2013-08-29 02:58:00,64.6,63.1,29.94,ENE,57,0.0,0.0,95,0.00,,,0.00,Wunderground v.1.15,2013-08-29 07:58:00,
2013-08-29 03:03:00,64.8,63.3,29.94,NE,56,0.0,0.0,95,0.00,,,0.00,Wunderground v.1.15,2013-08-29 08:03:00,
2013-08-29 03:08:00,64.9,63.4,29.94,ENE,57,0.0,0.0,95,0.00,,,0.00,Wunderground v.1.15,2013-08-29 08:08:00,
2013-08-29 03:13:00,65.0,63.5,29.94,ENE,57,0.0,1.0,95,0.00,,,0.00,Wunderground v.1.15,2013-08-29 08:13:00,
2013-08-29 03:18:00,65.2,63.7,29.94,ENE,57,0.0,0.0,95,0.00,,,0.00,Wunderground v.1.15,2013-08-29 08:18:00,
2013-08-29 03:23:00,65.3,63.8,29.94,ENE,57,0.0,0.0,95,0.00,,,0.00,Wunderground v.1.15,2013-08-29 08:23:00,
2013-08-29 03:28:00,65.3,63.8,29.94,ENE,57,0.0,0.0,95,0.00,,,0.00,Wunderground v.1.15,2013-08-29 08:28:00,
2013-08-29 03:33:00,65.3,63.8,29.94,NE,56,0.0,0.0,95,0.00,,,0.00,Wunderground v.1.15,2013-08-29 08:33:00,
2013-08-29 03:38:00,65.3,63.8,29.94,ENE,57,0.0,0.0,95,0.00,,,0.00,Wunderground v.1.15,2013-08-29 08:38:00,
2013-08-29 03:43:00,65.3,63.8,29.94,ENE,57,0.0,0.0,95,0.00,,,0.00,Wunderground v.1.15,2013-08-29 08:43:00,
2013-08-29 03:48:00,65.4,63.9,29.94,ENE,57,0.0,0.0,95,0.00,,,0.00,Wunderground v.1.15,2013-08-29 08:48:00,
2013-08-29 03:53:00,65.4,63.9,29.94,NE,56,0.0,0.0,95,0.00,,,0.00,Wunderground v.1.15,2013-08-29 08:53:00,
2013-08-29 03:58:00,65.4,63.9,29.93,ENE,57,0.0,0.0,95,0.00,,,0.00,Wunderground v.1.15,2013-08-29 08:58:00,
2013-08-29 04:03:00,65.5,64.0,29.93,ENE,57,0.0,0.0,95,0.00,,,0.00,Wunderground v.1.15,2013-08-29 09:03:00,
2013-08-29 04:08:00,65.5,64.0,29.93,NE,56,0.0,0.0,95,0.00,,,0.00,Wunderground v.1.15,2013-08-29 09:08:00,
2013-08-29 04:13:00,65.4,63.9,29.94,ENE,57,0.0,0.0,95,0.00,,,0.00,Wunderground v.1.15,2013-08-29 09:13:00,
2013-08-29 04:18:00,65.3,63.8,29.94,ENE,57,0.0,0.0,95,0.00,,,0.00,Wunderground v.1.15,2013-08-29 09:18:00,
2013-08-29 04:23:00,65.2,63.7,29.94,NE,56,0.0,0.0,95,0.00,,,0.00,Wunderground v.1.15,2013-08-29 09:23:00,
2013-08-29 04:28:00,65.2,63.7,29.93,ENE,57,0.0,0.0,95,0.00,,,0.00,Wunderground v.1.15,2013-08-29 09:28:00,
2013-08-29 04:33:00,65.3,63.8,29.93,ENE,57,0.0,0.0,95,0.00,,,0.00,Wunderground v.1.15,2013-08-29 09:33:00,
2013-08-29 04:38:00,65.3,63.8,29.93,ENE,57,0.0,0.0,95,0.00,,,0.00,Wunderground v.1.15,2013-08-29 09:38:00,
2013-08-29 04:43:00,65.2,63.7,29.93,ENE,57,0.0,0.0,95,0.00,,,0.00,Wunderground v.1.15,2013-08-29 09:43:00,
2013-08-29 04:48:00,65.2,63.7,29.93,ENE,57,0.0,0.0,95,0.00,,,0.00,Wunderground v.1.15,2013-08-29 09:48:00,
2013-08-29 04:53:00,65.0,63.5,29.93,ENE,57,0.0,0.0,95,0.00,,,0.00,Wunderground v.1.15,2013-08-29 09:53:00,
2013-08-29 05:03:00,64.9,63.4,29.93,NE,56,0.0,0.0,95,0.00,,,0.00,Wunderground v.1.15,2013-08-29 10:03:00,
2013-08-29 05:08:00,64.8,63.3,29.93,ENE,57,0.0,0.0,95,0.00,,,0.00,Wunderground v.1.15,2013-08-29 10:08:00,
2013-08-29 05:13:00,64.8,63.3,29.94,ENE,57,0.0,0.0,95,0.00,,,0.00,Wunderground v.1.15,2013-08-29 10:13:00,
2013-08-29 05:18:00,64.7,63.2,29.94,NE,56,0.0,0.0,95,0.00,,,0.00,Wunderground v.1.15,2013-08-29 10:18:00,
2013-08-29 05:23:00,64.6,63.1,29.94,ENE,57,0.0,0.0,95,0.00,,,0.00,Wunderground v.1.15,2013-08-29 10:23:00,
2013-08-29 05:28:00,64.5,63.0,29.94,ENE,57,0.0,0.0,95,0.00,,,0.00,Wunderground v.1.15,2013-08-29 10:28:00,
2013-08-29 05:33:00,64.5,63.0,29.94,NE,56,0.0,1.0,95,0.00,,,0.00,Wunderground v.1.15,2013-08-29 10:33:00,
2013-08-29 05:38:00,64.5,63.0,29.94,ENE,57,0.0,1.0,95,0.00,,,0.00,Wunderground v.1.15,2013-08-29 10:38:00,
2013-08-29 05:43:00,64.5,63.0,29.94,NE,56,0.0,1.0,95,0.00,,,0.00,Wunderground v.1.15,2013-08-29 10:43:00,
2013-08-29 05:48:00,64.5,63.0,29.94,ENE,57,0.0,1.0,95,0.00,,,0.00,Wunderground v.1.15,2013-08-29 10:48:00,
2013-08-29 05:53:00,64.4,62.9,29.94,ENE,57,0.0,1.0,95,0.00,,,0.00,Wunderground v.1.15,2013-08-29 10:53:00,
2013-08-29 05:58:00,64.3,62.8,29.95,ENE,57,0.0,1.0,95,0.00,,,0.00,Wunderground v.1.15,2013-08-29 10:58:00,
2013-08-29 06:03:00,64.1,62.6,29.95,ENE,57,0.0,1.0,95,0.00,,,0.00,Wunderground v.1.15,2013-08-29 11:03:00,
2013-08-29 06:08:00,64.1,62.6,29.95,ENE,57,0.0,1.0,95,0.00,,,0.00,Wunderground v.1.15,2013-08-29 11:08:00,
2013-08-29 06:13:00,64.2,62.7,29.95,ENE,57,0.0,1.0,95,0.00,,,0.00,Wunderground v.1.15,2013-08-29 11:13:00,
2013-08-29 06:18:00,64.3,62.8,29.95,ENE,57,0.0,1.0,95,0.00,,,0.00,Wunderground v.1.15,2013-08-29 11:18:00,
2013-08-29 06:23:00,64.4,62.9,29.95,ENE,57,0.0,1.0,95,0.00,,,0.00,Wunderground v.1.15,2013-08-29 11:23:00,
2013-08-29 06:33:00,64.6,63.1,29.96,ENE,57,0.0,1.0,95,0.00,,,0.00,Wunderground v.1.15,2013-08-29 11:33:00,
2013-08-29 06:38:00,64.6,63.1,29.96,ENE,57,0.0,1.0,95,0.00,,,0.00,Wunderground v.1.15,2013-08-29 11:38:00,
2013-08-29 06:43:00,64.7,63.2,29.96,NE,56,0.0,1.0,95,0.00,,,0.00,Wunderground v.1.15,2013-08-29 11:43:00,
2013-08-29 06:48:00,64.9,63.4,29.96,ENE,57,0.0,1.0,95,0.00,,,0.00,Wunderground v.1.15,2013-08-29 11:48:00,
2013-08-29 06:53:00,64.9,63.4,29.96,NE,56,0.0,1.0,95,0.00,,,0.00,Wunderground v.1.15,2013-08-29 11:53:00,
2013-08-29 06:58:00,65.0,63.5,29.97,ENE,57,0.0,1.0,95,0.00,,,0.00,Wunderground v.1.15,2013-08-29 11:58:00,
2013-08-29 07:03:00,65.0,63.5,29.97,ENE,57,0.0,1.0,95,0.00,,,0.00,Wunderground v.1.15,2013-08-29 12:03:00,
2013-08-29 07:08:00,65.0,63.5,29.97,NE,56,0.0,1.0,95,0.00,,,0.00,Wunderground v.1.15,2013-08-29 12:08:00,
2013-08-29 07:13:00,65.1,63.6,29.97,NE,56,0.0,1.0,95,0.00,,,0.00,Wunderground v.1.15,2013-08-29 12:13:00,
2013-08-29 07:18:00,65.0,63.5,29.97,ENE,57,0.0,1.0,95,0.00,,,0.00,Wunderground v.1.15,2013-08-29 12:18:00,
2013-08-29 07:23:00,65.0,63.5,29.97,NE,56,0.0,1.0,95,0.00,,,0.00,Wunderground v.1.15,2013-08-29 12:23:00,
2013-08-29 07:28:00,64.9,63.4,29.97,ENE,57,0.0,1.0,95,0.00,,,0.00,Wunderground v.1.15,2013-08-29 12:28:00,
2013-08-29 07:33:00,64.9,63.4,29.97,NE,56,0.0,1.0,95,0.00,,,0.00,Wunderground v.1.15,2013-08-29 12:33:00,
2013-08-29 07:38:00,65.1,63.6,29.97,ENE,57,0.0,1.0,95,0.00,,,0.00,Wunderground v.1.15,2013-08-29 12:38:00,
2013-08-29 07:43:00,65.3,63.8,29.97,ENE,57,0.0,1.0,95,0.00,,,0.00,Wunderground v.1.15,2013-08-29 12:43:00,
2013-08-29 07:48:00,65.6,64.4,29.97,ENE,57,0.0,1.0,96,0.00,,,0.00,Wunderground v.1.15,2013-08-29 12:48:00,
2013-08-29 07:53:00,66.0,64.8,29.97,NE,56,0.0,1.0,96,0.00,,,0.00,Wunderground v.1.15,2013-08-29 12:53:00,
2013-08-29 07:58:00,66.4,65.2,29.97,ENE,57,0.0,1.0,96,0.00,,,0.00,Wunderground v.1.15,2013-08-29 12:58:00,
2013-08-29 08:03:00,66.8,65.6,29.97,NE,56,0.0,1.0,96,0.00,,,0.00,Wunderground v.1.15,2013-08-29 13:03:00,
2013-08-29 08:08:00,67.3,66.1,29.97,ENE,57,0.0,1.0,96,0.00,,,0.00,Wunderground v.1.15,2013-08-29 13:08:00,
2013-08-29 08:13:00,67.7,66.5,29.98,ENE,57,0.0,1.0,96,0.00,,,0.00,Wunderground v.1.15,2013-08-29 13:13:00,
2013-08-29 08:18:00,68.2,67.0,29.98,NE,51,0.0,1.0,96,0.00,,,0.00,Wunderground v.1.15,2013-08-29 13:18:00,
2013-08-29 08:23:00,68.6,67.4,29.98,NE,51,0.0,1.0,96,0.00,,,0.00,Wunderground v.1.15,2013-08-29 13:23:00,
2013-08-29 08:28:00,69.0,67.8,29.97,NE,51,0.0,1.0,96,0.00,,,0.00,Wunderground v.1.15,2013-08-29 13:28:00,
2013-08-29 08:33:00,69.4,68.2,29.97,NE,51,0.0,1.0,96,0.00,,,0.00,Wunderground v.1.15,2013-08-29 13:33:00,
2013-08-29 08:38:00,69.9,68.7,29.97,NE,50,0.0,1.0,96,0.00,,,0.00,Wunderground v.1.15,2013-08-29 13:38:00,
2013-08-29 08:43:00,70.5,69.3,29.98,NE,36,1.0,1.0,96,0.00,,,0.00,Wunderground v.1.15,2013-08-29 13:43:00,
2013-08-29 08:48:00,71.2,70.0,29.98,NE,35,1.0,1.0,96,0.00,,,0.00,Wunderground v.1.15,2013-08-29 13:48:00,
2013-08-29 08:53:00,71.8,69.3,29.98,NE,35,1.0,1.0,92,0.00,,,0.00,Wunderground v.1.15,2013-08-29 13:53:00,
2013-08-29 08:58:00,72.5,69.4,29.98,NNE,33,1.0,1.0,90,0.00,,,0.00,Wunderground v.1.15,2013-08-29 13:58:00,
2013-08-29 09:03:00,73.3,68.9,29.98,NE,45,1.0,2.0,86,0.00,,,0.00,Wunderground v.1.15,2013-08-29 14:03:00,
2013-08-29 09:08:00,74.3,68.8,29.98,NNE,24,1.0,3.0,83,0.00,,,0.00,Wunderground v.1.15,2013-08-29 14:08:00,
2013-08-29 09:13:00,75.3,68.3,29.98,NE,36,2.0,3.0,79,0.00,,,0.00,Wunderground v.1.15,2013-08-29 14:13:00,
2013-08-29 09:18:00,76.2,68.1,29.98,North,9,2.0,3.0,76,0.00,,,0.00,Wunderground v.1.15,2013-08-29 14:18:00,
2013-08-29 09:23:00,76.9,68.4,29.98,WNW,286,2.0,3.0,75,0.00,,,0.00,Wunderground v.1.15,2013-08-29 14:23:00,
2013-08-29 09:28:00,77.4,68.9,29.98,NE,39,1.0,2.0,75,0.00,,,0.00,Wunderground v.1.15,2013-08-29 14:28:00,
2013-08-29 09:33:00,78.2,69.2,29.98,SE,125,1.0,2.0,74,0.00,,,0.00,Wunderground v.1.15,2013-08-29 14:33:00,
2013-08-29 09:38:00,78.8,69.8,29.98,West,281,1.0,1.0,74,0.00,,,0.00,Wunderground v.1.15,2013-08-29 14:38:00,
2013-08-29 09:43:00,79.3,69.1,29.98,NE,41,1.0,2.0,71,0.00,,,0.00,Wunderground v.1.15,2013-08-29 14:43:00,
2013-08-29 09:48:00,80.0,69.3,29.98,NNE,32,1.0,2.0,70,0.00,,,0.00,Wunderground v.1.15,2013-08-29 14:48:00,
2013-08-29 09:53:00,80.3,68.8,29.98,ENE,78,2.0,2.0,68,0.00,,,0.00,Wunderground v.1.15,2013-08-29 14:53:00,
2013-08-29 09:58:00,80.7,68.7,29.98,NE,53,2.0,2.0,67,0.00,,,0.00,Wunderground v.1.15,2013-08-29 14:58:00,
2013-08-29 10:03:00,81.3,69.3,29.98,NNE,28,2.0,2.0,67,0.00,,,0.00,Wunderground v.1.15,2013-08-29 15:03:00,
2013-08-29 10:13:00,82.2,69.7,29.98,NE,53,1.0,4.0,66,0.00,,,0.00,Wunderground v.1.15,2013-08-29 15:13:00,
2013-08-29 10:18:00,82.3,68.4,29.98,NE,36,2.0,2.0,63,0.00,,,0.00,Wunderground v.1.15,2013-08-29 15:18:00,
2013-08-29 10:23:00,82.7,68.4,29.98,NE,39,2.0,2.0,62,0.00,,,0.00,Wunderground v.1.15,2013-08-29 15:23:00,
2013-08-29 10:28:00,83.1,69.2,29.98,East,83,2.0,2.0,63,0.00,,,0.00,Wunderground v.1.15,2013-08-29 15:28:00,
2013-08-29 10:33:00,83.3,69.4,29.98,NNW,343,2.0,2.0,63,0.00,,,0.00,Wunderground v.1.15,2013-08-29 15:33:00,
2013-08-29 10:38:00,83.7,69.3,29.98,NE,56,1.0,1.0,62,0.00,,,0.00,Wunderground v.1.15,2013-08-29 15:38:00,
2013-08-29 10:48:00,84.5,69.6,29.98,NNE,18,2.0,2.0,61,0.00,,,0.00,Wunderground v.1.15,2013-08-29 15:48:00,
2013-08-29 10:53:00,84.3,68.9,29.98,North,355,2.0,2.0,60,0.00,,,0.00,Wunderground v.1.15,2013-08-29 15:53:00,
2013-08-29 10:58:00,84.5,69.6,29.98,ENE,66,2.0,2.0,61,0.00,,,0.00,Wunderground v.1.15,2013-08-29 15:58:00,
2013-08-29 11:03:00,84.4,69.5,29.98,NE,53,2.0,2.0,61,0.00,,,0.00,Wunderground v.1.15,2013-08-29 16:03:00,
2013-08-29 11:08:00,84.9,69.5,29.98,NE,37,2.0,4.0,60,0.00,,,0.00,Wunderground v.1.15,2013-08-29 16:08:00,
2013-08-29 11:13:00,85.2,70.2,29.98,NE,50,2.0,4.0,61,0.00,,,0.00,Wunderground v.1.15,2013-08-29 16:13:00,
2013-08-29 11:18:00,85.5,70.5,29.98,South,169,2.0,2.0,61,0.00,,,0.00,Wunderground v.1.15,2013-08-29 16:18:00,
2013-08-29 11:23:00,85.8,70.8,29.98,NNE,17,2.0,4.0,61,0.00,,,0.00,Wunderground v.1.15,2013-08-29 16:23:00,
2013-08-29 11:28:00,85.3,69.8,29.98,NE,55,2.0,2.0,60,0.00,,,0.00,Wunderground v.1.15,2013-08-29 16:28:00,
2013-08-29 11:33:00,85.4,70.4,29.98,NNE,31,2.0,4.0,61,0.00,,,0.00,Wunderground v.1.15,2013-08-29 16:33:00,
2013-08-29 11:38:00,84.8,70.8,29.98,East,92,2.0,2.0,63,0.00,,,0.00,Wunderground v.1.15,2013-08-29 16:38:00,
2013-08-29 11:43:00,85.3,70.8,29.97,NE,36,3.0,3.0,62,0.00,,,0.00,Wunderground v.1.15,2013-08-29 16:43:00,
2013-08-29 11:48:00,85.8,70.3,29.97,NNE,29,2.0,2.0,60,0.00,,,0.00,Wunderground v.1.15,2013-08-29 16:48:00,
2013-08-29 11:53:00,86.0,70.5,29.97,NNE,20,1.0,2.0,60,0.00,,,0.00,Wunderground v.1.15,2013-08-29 16:53:00,
2013-08-29 11:58:00,85.7,70.7,29.97,North,360,1.0,2.0,61,0.00,,,0.00,Wunderground v.1.15,2013-08-29 16:58:00,
2013-08-29 12:03:00,85.5,71.0,29.97,NE,49,1.0,2.0,62,0.00,,,0.00,Wunderground v.1.15,2013-08-29 17:03:00,
2013-08-29 12:08:00,84.9,70.4,29.97,East,96,1.0,1.0,62,0.00,,,0.00,Wunderground v.1.15,2013-08-29 17:08:00,
2013-08-29 12:13:00,84.6,71.1,29.96,ENE,64,1.0,2.0,64,0.00,,,0.00,Wunderground v.1.15,2013-08-29 17:13:00,
2013-08-29 12:18:00,84.2,70.2,29.96,NE,36,1.0,2.0,63,0.00,,,0.00,Wunderground v.1.15,2013-08-29 17:18:00,
2013-08-29 12:23:00,83.8,70.8,29.96,NE,44,2.0,2.0,65,0.00,,,0.00,Wunderground v.1.15,2013-08-29 17:23:00,
2013-08-29 12:33:00,83.8,69.4,29.96,NE,38,2.0,4.0,62,0.00,,,0.00,Wunderground v.1.15,2013-08-29 17:33:00,
2013-08-29 12:38:00,84.1,69.7,29.96,NNE,29,3.0,4.0,62,0.00,,,0.00,Wunderground v.1.15,2013-08-29 17:38:00,
2013-08-29 12:43:00,84.6,70.1,29.95,NE,34,4.0,4.0,62,0.00,,,0.00,Wunderground v.1.15,2013-08-29 17:43:00,
2013-08-29 12:48:00,84.5,69.1,29.95,NE,54,3.0,3.0,60,0.00,,,0.00,Wunderground v.1.15,2013-08-29 17:48:00,
2013-08-29 12:53:00,84.4,70.0,29.95,NNE,29,2.0,3.0,62,0.00,,,0.00,Wunderground v.1.15,2013-08-29 17:53:00,
2013-08-29 12:58:00,85.8,70.3,29.95,NNE,24,2.0,3.0,60,0.00,,,0.00,Wunderground v.1.15,2013-08-29 17:58:00,
2013-08-29 13:03:00,85.8,69.8,29.95,NNE,29,2.0,3.0,59,0.00,,,0.00,Wunderground v.1.15,2013-08-29 18:03:00,
2013-08-29 13:08:00,85.6,70.1,29.95,NE,52,2.0,2.0,60,0.00,,,0.00,Wunderground v.1.15,2013-08-29 18:08:00,
2013-08-29 13:13:00,85.6,70.6,29.94,NE,48,1.0,2.0,61,0.00,,,0.00,Wunderground v.1.15,2013-08-29 18:13:00,
2013-08-29 13:18:00,85.6,70.6,29.94,NNE,33,1.0,1.0,61,0.00,,,0.00,Wunderground v.1.15,2013-08-29 18:18:00,
2013-08-29 13:23:00,86.7,70.7,29.94,NE,36,2.0,3.0,59,0.00,,,0.00,Wunderground v.1.15,2013-08-29 18:23:00,
2013-08-29 13:28:00,86.9,69.8,29.94,NNE,26,2.0,5.0,57,0.00,,,0.00,Wunderground v.1.15,2013-08-29 18:28:00,
2013-08-29 13:33:00,85.7,69.7,29.94,NNE,17,3.0,5.0,59,0.00,,,0.00,Wunderground v.1.15,2013-08-29 18:33:00,
2013-08-29 13:38:00,85.2,71.2,29.94,ENE,65,3.0,4.0,63,0.00,,,0.00,Wunderground v.1.15,2013-08-29 18:38:00,
2013-08-29 13:43:00,85.8,69.8,29.94,NNE,19,3.0,5.0,59,0.00,,,0.00,Wunderground v.1.15,2013-08-29 18:43:00,
2013-08-29 13:48:00,86.1,70.6,29.94,ENE,61,3.0,3.0,60,0.00,,,0.00,Wunderground v.1.15,2013-08-29 18:48:00,
2013-08-29 13:53:00,86.5,70.0,29.94,South,182,3.0,3.0,58,0.00,,,0.00,Wunderground v.1.15,2013-08-29 18:53:00,
2013-08-29 13:58:00,86.7,69.6,29.93,ENE,57,3.0,3.0,57,0.00,,,0.00,Wunderground v.1.15,2013-08-29 18:58:00,
2013-08-29 14:03:00,85.7,69.7,29.93,NE,46,3.0,5.0,59,0.00,,,0.00,Wunderground v.1.15,2013-08-29 19:03:00,
2013-08-29 14:08:00,85.6,69.6,29.93,NNE,27,3.0,4.0,59,0.00,,,0.00,Wunderground v.1.15,2013-08-29 19:08:00,
2013-08-29 14:13:00,86.1,70.1,29.92,NE,52,3.0,4.0,59,0.00,,,0.00,Wunderground v.1.15,2013-08-29 19:13:00,
2013-08-29 14:18:00,86.4,70.4,29.92,NE,44,3.0,3.0,59,0.00,,,0.00,Wunderground v.1.15,2013-08-29 19:18:00,
2013-08-29 14:23:00,87.0,69.4,29.92,SE,128,2.0,3.0,56,0.00,,,0.00,Wunderground v.1.15,2013-08-29 19:23:00,
2013-08-29 14:28:00,87.9,69.7,29.92,NE,45,1.0,3.0,55,0.00,,,0.00,Wunderground v.1.15,2013-08-29 19:28:00,
2013-08-29 14:33:00,88.1,69.9,29.92,NE,56,2.0,3.0,55,0.00,,,0.00,Wunderground v.1.15,2013-08-29 19:33:00,
2013-08-29 14:38:00,88.2,69.5,29.92,ESE,107,2.0,2.0,54,0.00,,,0.00,Wunderground v.1.15,2013-08-29 19:38:00,
2013-08-29 14:43:00,88.5,69.7,29.91,ESE,105,2.0,2.0,54,0.00,,,0.00,Wunderground v.1.15,2013-08-29 19:43:00,
2013-08-29 14:48:00,89.0,69.1,29.91,NW,307,2.0,2.0,52,0.00,,,0.00,Wunderground v.1.15,2013-08-29 19:48:00,
2013-08-29 14:53:00,89.2,70.9,29.91,NNE,21,1.0,4.0,55,0.00,,,0.00,Wunderground v.1.15,2013-08-29 19:53:00,
2013-08-29 14:58:00,88.1,70.4,29.90,NE,45,2.0,2.0,56,0.00,,,0.00,Wunderground v.1.15,2013-08-29 19:58:00,
2013-08-29 15:03:00,86.8,69.7,29.90,NE,45,3.0,3.0,57,0.00,,,0.00,Wunderground v.1.15,2013-08-29 20:03:00,
2013-08-29 15:13:00,86.3,72.7,29.90,NE,40,1.0,2.0,64,0.00,,,0.00,Wunderground v.1.15,2013-08-29 20:13:00,
2013-08-29 15:18:00,86.1,72.5,29.90,NE,40,0.0,0.0,64,0.00,,,0.00,Wunderground v.1.15,2013-08-29 20:18:00,
2013-08-29 15:23:00,86.0,71.0,29.90,NE,40,0.0,0.0,61,0.00,,,0.00,Wunderground v.1.15,2013-08-29 20:23:00,
2013-08-29 15:28:00,85.9,71.8,29.90,NE,41,0.0,1.0,63,0.00,,,0.00,Wunderground v.1.15,2013-08-29 20:28:00,
2013-08-29 15:33:00,86.2,69.7,29.90,NE,41,0.0,5.0,58,0.00,,,0.00,Wunderground v.1.15,2013-08-29 20:33:00,
2013-08-29 15:38:00,87.3,70.2,29.90,NE,51,1.0,5.0,57,0.00,,,0.00,Wunderground v.1.15,2013-08-29 20:38:00,
2013-08-29 15:43:00,86.8,70.2,29.90,NE,46,2.0,5.0,58,0.00,,,0.00,Wunderground v.1.15,2013-08-29 20:43:00,
2013-08-29 15:48:00,86.6,69.0,29.90,NNE,19,3.0,3.0,56,0.00,,,0.00,Wunderground v.1.15,2013-08-29 20:48:00,
2013-08-29 15:53:00,87.0,69.9,29.90,NE,44,2.0,5.0,57,0.00,,,0.00,Wunderground v.1.15,2013-08-29 20:53:00,
2013-08-29 15:58:00,88.1,69.9,29.89,NE,55,2.0,5.0,55,0.00,,,0.00,Wunderground v.1.15,2013-08-29 20:58:00,
2013-08-29 16:03:00,88.8,69.5,29.89,NE,52,2.0,5.0,53,0.00,,,0.00,Wunderground v.1.15,2013-08-29 21:03:00,
2013-08-29 16:08:00,89.5,70.7,29.89,ESE,105,2.0,2.0,54,0.00,,,0.00,Wunderground v.1.15,2013-08-29 21:08:00,
2013-08-29 16:13:00,90.4,69.8,29.89,ENE,69,1.0,5.0,51,0.00,,,0.00,Wunderground v.1.15,2013-08-29 21:13:00,
2013-08-29 16:18:00,90.9,68.5,29.89,SSE,149,1.0,5.0,48,0.00,,,0.00,Wunderground v.1.15,2013-08-29 21:18:00,
2013-08-29 16:23:00,91.6,69.7,29.89,ESE,110,1.0,5.0,49,0.00,,,0.00,Wunderground v.1.15,2013-08-29 21:23:00,
2013-08-29 16:28:00,91.8,69.9,29.89,ENE,67,1.0,5.0,49,0.00,,,0.00,Wunderground v.1.15,2013-08-29 21:28:00,
2013-08-29 16:33:00,91.1,70.5,29.89,NE,54,2.0,5.0,51,0.00,,,0.00,Wunderground v.1.15,2013-08-29 21:33:00,
2013-08-29 16:38:00,90.6,71.1,29.89,NE,37,2.0,5.0,53,0.00,,,0.00,Wunderground v.1.15,2013-08-29 21:38:00,
2013-08-29 16:43:00,89.6,69.6,29.88,NE,55,2.0,5.0,52,0.00,,,0.00,Wunderground v.1.15,2013-08-29 21:43:00,
2013-08-29 16:48:00,88.4,69.1,29.88,NE,35,2.0,5.0,53,0.00,,,0.00,Wunderground v.1.15,2013-08-29 21:48:00,
2013-08-29 16:53:00,87.9,69.7,29.88,NE,37,2.0,5.0,55,0.00,,,0.00,Wunderground v.1.15,2013-08-29 21:53:00,
2013-08-29 16:58:00,87.6,68.9,29.88,NNE,30,1.0,5.0,54,0.00,,,0.00,Wunderground v.1.15,2013-08-29 21:58:00,
2013-08-29 17:03:00,87.7,70.6,29.88,NE,34,1.0,5.0,57,0.00,,,0.00,Wunderground v.1.15,2013-08-29 22:03:00,
2013-08-29 17:13:00,87.3,69.7,29.88,NNE,33,2.0,5.0,56,0.00,,,0.00,Wunderground v.1.15,2013-08-29 22:13:00,
2013-08-29 17:18:00,87.1,69.5,29.88,NE,34,2.0,5.0,56,0.00,,,0.00,Wunderground v.1.15,2013-08-29 22:18:00,
2013-08-29 17:23:00,86.8,68.7,29.88,NE,36,2.0,5.0,55,0.00,,,0.00,Wunderground v.1.15,2013-08-29 22:23:00,
2013-08-29 17:28:00,86.8,68.7,29.88,NE,36,1.0,5.0,55,0.00,,,0.00,Wunderground v.1.15,2013-08-29 22:28:00,
2013-08-29 17:33:00,86.8,69.2,29.88,NE,36,1.0,5.0,56,0.00,,,0.00,Wunderground v.1.15,2013-08-29 22:33:00,
2013-08-29 17:38:00,86.8,69.7,29.88,NE,36,0.0,5.0,57,0.00,,,0.00,Wunderground v.1.15,2013-08-29 22:38:00,
2013-08-29 17:43:00,86.6,69.0,29.88,NE,34,1.0,5.0,56,0.00,,,0.00,Wunderground v.1.15,2013-08-29 22:43:00,
2013-08-29 17:48:00,86.4,69.9,29.88,NE,46,1.0,1.0,58,0.00,,,0.00,Wunderground v.1.15,2013-08-29 22:48:00,
2013-08-29 17:53:00,86.1,69.6,29.88,NE,46,1.0,5.0,58,0.00,,,0.00,Wunderground v.1.15,2013-08-29 22:53:00,
2013-08-29 17:58:00,86.0,69.0,29.88,NE,45,0.0,5.0,57,0.00,,,0.00,Wunderground v.1.15,2013-08-29 22:58:00,
2013-08-29 18:03:00,86.0,69.5,29.88,NE,46,0.0,5.0,58,0.00,,,0.00,Wunderground v.1.15,2013-08-29 23:03:00,
2013-08-29 18:08:00,85.9,70.9,29.88,NE,45,0.0,5.0,61,0.00,,,0.00,Wunderground v.1.15,2013-08-29 23:08:00,
2013-08-29 18:13:00,85.8,72.2,29.88,NE,46,0.0,5.0,64,0.00,,,0.00,Wunderground v.1.15,2013-08-29 23:13:00,
2013-08-29 18:18:00,85.6,72.0,29.88,NE,45,0.0,5.0,64,0.00,,,0.00,Wunderground v.1.15,2013-08-29 23:18:00,
2013-08-29 18:23:00,85.3,71.3,29.88,NE,46,0.0,5.0,63,0.00,,,0.00,Wunderground v.1.15,2013-08-29 23:23:00,
2013-08-29 18:28:00,85.0,72.4,29.88,NE,46,0.0,5.0,66,0.00,,,0.00,Wunderground v.1.15,2013-08-29 23:28:00,
2013-08-29 18:33:00,84.4,72.7,29.88,NE,46,1.0,5.0,68,0.00,,,0.00,Wunderground v.1.15,2013-08-29 23:33:00,
2013-08-29 18:38:00,83.8,72.5,29.88,NE,45,1.0,1.0,69,0.00,,,0.00,Wunderground v.1.15,2013-08-29 23:38:00,
2013-08-29 18:43:00,83.3,72.5,29.88,NE,46,0.0,5.0,70,0.00,,,0.00,Wunderground v.1.15,2013-08-29 23:43:00,
2013-08-29 18:48:00,82.8,72.8,29.88,NE,45,0.0,5.0,72,0.00,,,0.00,Wunderground v.1.15,2013-08-29 23:48:00,
2013-08-29 18:53:00,82.3,72.8,29.88,NE,46,0.0,5.0,73,0.00,,,0.00,Wunderground v.1.15,2013-08-29 23:53:00,
2013-08-29 18:58:00,81.8,72.7,29.89,NE,46,0.0,5.0,74,0.00,,,0.00,Wunderground v.1.15,2013-08-29 23:58:00,
2013-08-29 19:03:00,81.2,72.5,29.89,NE,46,1.0,5.0,75,0.00,,,0.00,Wunderground v.1.15,2013-08-30 00:03:00,
2013-08-29 19:08:00,80.6,72.3,29.89,NE,45,1.0,1.0,76,0.00,,,0.00,Wunderground v.1.15,2013-08-30 00:08:00,
2013-08-29 19:13:00,80.1,71.8,29.89,NE,46,1.0,5.0,76,0.00,,,0.00,Wunderground v.1.15,2013-08-30 00:13:00,
2013-08-29 19:18:00,79.7,72.2,29.89,NE,45,0.0,5.0,78,0.00,,,0.00,Wunderground v.1.15,2013-08-30 00:18:00,
2013-08-29 19:23:00,79.2,71.7,29.89,NE,46,1.0,5.0,78,0.00,,,0.00,Wunderground v.1.15,2013-08-30 00:23:00,
2013-08-29 19:28:00,78.8,71.7,29.89,NE,45,1.0,1.0,79,0.00,,,0.00,Wunderground v.1.15,2013-08-30 00:28:00,
2013-08-29 19:38:00,78.0,71.3,29.89,NE,46,1.0,1.0,80,0.00,,,0.00,Wunderground v.1.15,2013-08-30 00:38:00,
2013-08-29 19:43:00,77.7,71.4,29.89,NE,46,0.0,5.0,81,0.00,,,0.00,Wunderground v.1.15,2013-08-30 00:43:00,
2013-08-29 19:48:00,77.5,71.2,29.89,NE,46,0.0,5.0,81,0.00,,,0.00,Wunderground v.1.15,2013-08-30 00:48:00,
2013-08-29 19:53:00,77.3,71.0,29.89,NE,46,0.0,5.0,81,0.00,,,0.00,Wunderground v.1.15,2013-08-30 00:53:00,
2013-08-29 19:58:00,77.2,71.3,29.89,NE,46,0.0,5.0,82,0.00,,,0.00,Wunderground v.1.15,2013-08-30 00:58:00,
2013-08-29 20:03:00,76.9,71.3,29.89,NE,45,0.0,5.0,83,0.00,,,0.00,Wunderground v.1.15,2013-08-30 01:03:00,
2013-08-29 20:08:00,76.6,71.0,29.89,NE,46,0.0,5.0,83,0.00,,,0.00,Wunderground v.1.15,2013-08-30 01:08:00,
2013-08-29 20:13:00,76.2,70.7,29.89,NE,46,0.0,5.0,83,0.00,,,0.00,Wunderground v.1.15,2013-08-30 01:13:00,
2013-08-29 20:18:00,75.9,70.7,29.89,NE,45,0.0,5.0,84,0.00,,,0.00,Wunderground v.1.15,2013-08-30 01:18:00,
2013-08-29 20:23:00,75.5,70.3,29.89,NE,46,0.0,5.0,84,0.00,,,0.00,Wunderground v.1.15,2013-08-30 01:23:00,
2013-08-29 20:28:00,75.3,70.5,29.89,NE,46,0.0,5.0,85,0.00,,,0.00,Wunderground v.1.15,2013-08-30 01:28:00,
2013-08-29 20:33:00,75.1,70.3,29.89,NE,46,0.0,5.0,85,0.00,,,0.00,Wunderground v.1.15,2013-08-30 01:33:00,
2013-08-29 20:38:00,74.9,70.1,29.89,NE,46,0.0,5.0,85,0.00,,,0.00,Wunderground v.1.15,2013-08-30 01:38:00,
2013-08-29 20:43:00,74.8,70.3,29.89,NE,45,0.0,5.0,86,0.00,,,0.00,Wunderground v.1.15,2013-08-30 01:43:00,
2013-08-29 20:48:00,74.6,70.1,29.89,NE,46,0.0,5.0,86,0.00,,,0.00,Wunderground v.1.15,2013-08-30 01:48:00,
2013-08-29 20:53:00,74.4,69.9,29.89,NE,46,0.0,5.0,86,0.00,,,0.00,Wunderground v.1.15,2013-08-30 01:53:00,
2013-08-29 20:58:00,74.3,69.8,29.90,NE,46,0.0,5.0,86,0.00,,,0.00,Wunderground v.1.15,2013-08-30 01:58:00,
2013-08-29 21:03:00,74.1,69.6,29.90,NE,45,0.0,5.0,86,0.00,,,0.00,Wunderground v.1.15,2013-08-30 02:03:00,
2013-08-29 21:08:00,74.0,69.9,29.90,NE,46,0.0,5.0,87,0.00,,,0.00,Wunderground v.1.15,2013-08-30 02:08:00,
2013-08-29 21:13:00,73.8,69.7,29.90,NE,46,0.0,5.0,87,0.00,,,0.00,Wunderground v.1.15,2013-08-30 02:13:00,
2013-08-29 21:18:00,73.5,69.4,29.90,NE,46,0.0,5.0,87,0.00,,,0.00,Wunderground v.1.15,2013-08-30 02:18:00,
2013-08-29 21:23:00,73.4,69.6,29.90,NE,46,0.0,5.0,88,0.00,,,0.00,Wunderground v.1.15,2013-08-30 02:23:00,
2013-08-29 21:28:00,73.1,69.3,29.90,NE,46,0.0,5.0,88,0.00,,,0.00,Wunderground v.1.15,2013-08-30 02:28:00,
2013-08-29 21:33:00,73.0,69.2,29.90,NE,45,0.0,5.0,88,0.00,,,0.00,Wunderground v.1.15,2013-08-30 02:33:00,
2013-08-29 21:38:00,72.8,69.4,29.90,NE,45,0.0,5.0,89,0.00,,,0.00,Wunderground v.1.15,2013-08-30 02:38:00,
2013-08-29 21:43:00,72.6,69.2,29.90,NE,46,0.0,5.0,89,0.00,,,0.00,Wunderground v.1.15,2013-08-30 02:43:00,
2013-08-29 21:48:00,72.5,69.1,29.90,NE,46,0.0,5.0,89,0.00,,,0.00,Wunderground v.1.15,2013-08-30 02:48:00,
2013-08-29 21:53:00,72.4,69.3,29.90,SE,146,0.0,5.0,90,0.00,,,0.00,Wunderground v.1.15,2013-08-30 02:53:00,
2013-08-29 21:58:00,72.2,69.1,29.90,ESE,113,1.0,5.0,90,0.00,,,0.00,Wunderground v.1.15,2013-08-30 02:58:00,
2013-08-29 22:03:00,72.2,69.1,29.90,ESE,113,1.0,5.0,90,0.00,,,0.00,Wunderground v.1.15,2013-08-30 03:03:00,
2013-08-29 22:08:00,72.1,69.3,29.90,ESE,113,1.0,1.0,91,0.00,,,0.00,Wunderground v.1.15,2013-08-30 03:08:00,
2013-08-29 22:13:00,72.0,69.2,29.91,ESE,113,1.0,5.0,91,0.00,,,0.00,Wunderground v.1.15,2013-08-30 03:13:00,
2013-08-29 22:18:00,71.9,69.1,29.91,ESE,113,0.0,5.0,91,0.00,,,0.00,Wunderground v.1.15,2013-08-30 03:18:00,
2013-08-29 22:23:00,71.9,69.1,29.91,ESE,113,0.0,5.0,91,0.00,,,0.00,Wunderground v.1.15,2013-08-30 03:23:00,
2013-08-29 22:28:00,71.8,69.0,29.91,ESE,113,0.0,5.0,91,0.00,,,0.00,Wunderground v.1.15,2013-08-30 03:28:00,
2013-08-29 22:33:00,71.7,68.9,29.91,ESE,113,0.0,5.0,91,0.00,,,0.00,Wunderground v.1.15,2013-08-30 03:33:00,
2013-08-29 22:38:00,71.7,68.9,29.91,ESE,113,0.0,5.0,91,0.00,,,0.00,Wunderground v.1.15,2013-08-30 03:38:00,
2013-08-29 22:43:00,71.6,68.8,29.91,ESE,113,0.0,5.0,91,0.00,,,0.00,Wunderground v.1.15,2013-08-30 03:43:00,
2013-08-29 22:48:00,71.5,68.7,29.91,ESE,113,0.0,5.0,91,0.00,,,0.00,Wunderground v.1.15,2013-08-30 03:48:00,
2013-08-29 22:58:00,71.3,68.9,29.91,ESE,113,0.0,5.0,92,0.00,,,0.00,Wunderground v.1.15,2013-08-30 03:58:00,
2013-08-29 23:03:00,71.2,68.8,29.91,ESE,113,0.0,5.0,92,0.00,,,0.00,Wunderground v.1.15,2013-08-30 04:03:00,
2013-08-29 23:08:00,71.1,68.3,29.91,ESE,113,0.0,5.0,91,0.00,,,0.00,Wunderground v.1.15,2013-08-30 04:08:00,
2013-08-29 23:18:00,71.0,68.6,29.91,ESE,113,0.0,5.0,92,0.00,,,0.00,Wunderground v.1.15,2013-08-30 04:18:00,
2013-08-29 23:23:00,70.9,68.5,29.91,ESE,113,0.0,5.0,92,0.00,,,0.00,Wunderground v.1.15,2013-08-30 04:23:00,
2013-08-29 23:28:00,70.8,68.4,29.91,ESE,113,0.0,5.0,92,0.00,,,0.00,Wunderground v.1.15,2013-08-30 04:28:00,
2013-08-29 23:33:00,70.7,68.3,29.91,ESE,113,0.0,5.0,92,0.00,,,0.00,Wunderground v.1.15,2013-08-30 04:33:00,
2013-08-29 23:38:00,70.7,68.3,29.91,ESE,113,0.0,5.0,92,0.00,,,0.00,Wunderground v.1.15,2013-08-30 04:38:00,
2013-08-29 23:43:00,70.6,68.2,29.90,ESE,113,0.0,5.0,92,0.00,,,0.00,Wunderground v.1.15,2013-08-30 04:43:00,
2013-08-29 23:48:00,70.6,68.2,29.90,ESE,113,0.0,5.0,92,0.00,,,0.00,Wunderground v.1.15,2013-08-30 04:48:00,
2013-08-29 23:53:00,70.5,68.1,29.90,ESE,113,0.0,5.0,92,0.00,,,0.00,Wunderground v.1.15,2013-08-30 04:53:00,
2013-08-29 23:58:00,70.4,68.0,29.90,ESE,113,0.0,5.0,92,0.00,,,0.00,Wunderground v.1.15,2013-08-30 04:58:00,